createdAt,value
2019-06-10T00:02:16.054Z,4.75
2019-06-10T00:07:53.559Z,5.25
2019-06-10T00:10:31.776Z,3.80
2019-06-10T00:13:25.333Z,5.10
2019-06-10T00:15:57.276Z,5.87
2019-06-10T00:18:45.715Z,4.60
2019-06-10T00:21:15.146Z,4.22
2019-06-10T00:24:26.712Z,4.50
2019-06-10T00:27:05.507Z,5.20
2019-06-10T00:29:37.439Z,5.67
2019-06-10T00:32:08.546Z,5.03
2019-06-10T00:34:59.403Z,5.90
2019-06-10T00:37:35.499Z,4.35
2019-06-10T00:40:10.052Z,4.62
2019-06-10T00:42:45.239Z,5.07
2019-06-10T00:45:23.186Z,5.25
2019-06-10T00:48:20.735Z,5.42
2019-06-10T00:50:43.138Z,4.70
2019-06-10T00:53:14.483Z,6.47
2019-06-10T00:55:45.797Z,8.97
2019-06-10T00:59:15.787Z,7.62
2019-06-10T01:01:50.909Z,6.00
2019-06-10T01:04:47.838Z,4.78
2019-06-10T01:07:52.276Z,4.28
2019-06-10T01:11:21.573Z,3.80
2019-06-10T01:13:57.823Z,3.97
2019-06-10T01:16:31.883Z,4.03
2019-06-10T01:19:18.775Z,7.37
2019-06-10T01:21:50.998Z,6.60
2019-06-10T01:24:22.326Z,6.03
2019-06-10T01:26:52.748Z,6.58
2019-06-10T01:29:28.719Z,6.03
2019-06-10T01:32:09.757Z,5.55
2019-06-10T01:35:17.454Z,8.48
2019-06-10T01:37:56.571Z,6.13
2019-06-10T01:40:44.842Z,6.57
2019-06-10T01:43:21.213Z,6.72
2019-06-10T01:45:54.174Z,6.40
2019-06-10T01:48:38.047Z,6.93
2019-06-10T01:51:02.593Z,6.75
2019-06-10T01:56:31.500Z,7.00
2019-06-10T01:59:04.348Z,6.23
2019-06-10T02:01:43.543Z,7.05
2019-06-10T02:04:16.681Z,5.87
2019-06-10T02:06:47.627Z,4.40
2019-06-10T02:09:18.815Z,6.70
2019-06-10T02:11:51.323Z,6.22
2019-06-10T02:14:24.197Z,4.40
2019-06-10T02:17:02.891Z,7.17
2019-06-10T02:19:53.157Z,5.10
2019-06-10T02:22:26.844Z,5.83
2019-06-10T02:24:56.906Z,5.27
2019-06-10T02:27:50.736Z,5.30
2019-06-10T02:30:36.217Z,5.87
2019-06-10T02:33:02.409Z,6.95
2019-06-10T02:35:44.221Z,7.12
2019-06-10T02:38:16.861Z,6.25
2019-06-10T02:40:44.958Z,6.62
2019-06-10T02:43:20.805Z,7.87
2019-06-10T02:45:49.113Z,5.92
2019-06-10T02:48:43.640Z,6.92
2019-06-10T02:51:30.620Z,7.80
2019-06-10T02:54:20.219Z,7.87
2019-06-10T02:56:53.954Z,7.97
2019-06-10T02:59:27.456Z,8.70
2019-06-10T03:02:06.762Z,7.15
2019-06-10T03:04:37.893Z,7.30
2019-06-10T03:07:13.723Z,10.50
2019-06-10T03:10:30.016Z,10.30
2019-06-10T03:13:26.626Z,7.93
2019-06-10T03:16:23.983Z,7.47
2019-06-10T03:34:45.991Z,8.00
2019-06-10T03:37:39.490Z,8.10
2019-06-10T03:40:32.671Z,7.75
2019-06-10T03:46:40.229Z,7.43
2019-06-10T03:49:52.341Z,7.12
2019-06-10T03:52:37.808Z,7.12
2019-06-10T03:55:26.308Z,6.55
2019-06-10T03:58:25.951Z,5.67
2019-06-10T04:00:56.721Z,6.97
2019-06-10T04:04:25.183Z,7.30
2019-06-10T04:06:57.479Z,6.22
2019-06-10T04:09:28.808Z,6.07
2019-06-10T04:12:24.695Z,6.70
2019-06-10T04:14:57.081Z,5.20
2019-06-10T04:17:39.489Z,6.73
2019-06-10T04:20:15.468Z,7.45
2019-06-10T04:22:44.569Z,8.10
2019-06-10T04:25:19.586Z,8.40
2019-06-10T04:28:13.074Z,7.10
2019-06-10T04:30:44.578Z,5.62
2019-06-10T04:33:18.284Z,7.47
2019-06-10T04:35:52.024Z,7.80
2019-06-10T04:38:23.367Z,5.75
2019-06-10T04:40:53.281Z,6.25
2019-06-10T04:43:26.015Z,7.50
2019-06-10T04:45:56.982Z,7.22
2019-06-10T04:48:28.066Z,12.98
2019-06-10T04:50:59.262Z,8.65
2019-06-10T04:53:29.439Z,10.37
2019-06-10T04:55:59.222Z,9.10
2019-06-10T04:58:30.090Z,7.58
2019-06-10T05:00:59.858Z,6.12
2019-06-10T05:03:29.632Z,14.45
2019-06-10T05:05:59.375Z,8.08
2019-06-10T05:08:29.631Z,8.58
2019-06-10T05:10:59.298Z,9.13
2019-06-10T05:13:30.006Z,8.80
2019-06-10T05:16:00.063Z,10.80
2019-06-10T05:18:30.317Z,10.70
2019-06-10T05:21:02.495Z,10.25
2019-06-10T05:23:32.969Z,8.48
2019-06-10T05:26:03.115Z,9.20
2019-06-10T05:28:34.222Z,7.03
2019-06-10T05:31:04.270Z,8.70
2019-06-10T05:33:33.945Z,6.20
2019-06-10T05:36:03.726Z,5.97
2019-06-10T05:38:35.355Z,10.55
2019-06-10T05:41:04.425Z,5.70
2019-06-10T05:43:34.687Z,7.55
2019-06-10T05:46:08.765Z,6.75
2019-06-10T05:48:38.288Z,5.45
2019-06-10T05:51:08.186Z,7.33
2019-06-10T05:53:37.641Z,7.92
2019-06-10T05:56:07.143Z,7.35
2019-06-10T05:58:36.627Z,7.40
2019-06-10T06:01:06.007Z,6.58
2019-06-10T06:03:37.031Z,5.67
2019-06-10T06:06:06.867Z,7.47
2019-06-10T06:08:37.482Z,7.12
2019-06-10T06:11:07.067Z,6.53
2019-06-10T06:13:37.982Z,7.83
2019-06-10T06:16:07.968Z,6.42
2019-06-10T06:18:38.363Z,6.35
2019-06-10T06:21:22.347Z,6.75
2019-06-10T06:23:43.407Z,4.83
2019-06-10T06:26:16.207Z,7.30
2019-06-10T06:28:43.606Z,5.67
2019-06-10T06:31:13.229Z,5.50
2019-06-10T06:33:43.221Z,5.25
2019-06-10T06:36:13.252Z,5.12
2019-06-10T06:38:43.823Z,5.22
2019-06-10T06:41:13.914Z,5.70
2019-06-10T06:43:45.337Z,5.47
2019-06-10T06:46:14.610Z,5.85
2019-06-10T06:48:44.284Z,5.30
2019-06-10T06:51:14.155Z,5.37
2019-06-10T06:53:51.417Z,5.03
2019-06-10T06:56:15.016Z,4.42
2019-06-10T06:58:44.650Z,4.55
2019-06-10T07:01:14.891Z,5.05
2019-06-10T07:03:45.441Z,4.10
2019-06-10T07:06:15.953Z,6.45
2019-06-10T07:09:00.272Z,4.97
2019-06-10T07:11:18.899Z,4.85
2019-06-10T07:13:48.851Z,4.78
2019-06-10T07:16:18.331Z,3.95
2019-06-10T07:18:50.123Z,3.80
2019-06-10T07:21:19.251Z,4.17
2019-06-10T07:23:48.751Z,3.70
2019-06-10T07:26:19.351Z,4.40
2019-06-10T07:28:49.192Z,4.28
2019-06-10T07:31:24.000Z,4.83
2019-06-10T07:33:52.330Z,4.05
2019-06-10T07:36:23.593Z,9.40
2019-06-10T07:38:53.805Z,5.87
2019-06-10T07:41:23.725Z,4.03
2019-06-10T07:43:53.415Z,5.37
2019-06-10T07:46:23.245Z,5.83
2019-06-10T07:48:56.458Z,6.03
2019-06-10T07:51:25.604Z,4.55
2019-06-10T07:53:55.073Z,9.40
2019-06-10T07:56:24.753Z,6.30
2019-06-10T07:58:54.292Z,7.58
2019-06-10T08:01:23.835Z,6.12
2019-06-10T08:03:53.175Z,7.75
2019-06-10T08:06:23.045Z,4.20
2019-06-10T08:08:53.411Z,7.55
2019-06-10T08:11:23.315Z,5.30
2019-06-10T08:13:53.891Z,5.60
2019-06-10T08:16:23.882Z,5.28
2019-06-10T08:19:20.471Z,7.50
2019-06-10T08:21:24.547Z,6.47
2019-06-10T08:23:54.783Z,5.25
2019-06-10T08:26:24.115Z,6.92
2019-06-10T08:28:53.540Z,5.67
2019-06-10T08:31:22.907Z,5.10
2019-06-10T08:33:53.440Z,4.80
2019-06-10T08:36:23.191Z,7.12
2019-06-10T08:38:53.077Z,7.12
2019-06-10T08:41:23.238Z,5.40
2019-06-10T08:43:53.022Z,7.12
2019-06-10T08:46:22.771Z,6.97
2019-06-10T08:48:52.723Z,5.17
2019-06-10T08:51:23.592Z,5.25
2019-06-10T08:53:53.496Z,4.75
2019-06-10T08:56:22.878Z,6.50
2019-06-10T08:58:54.134Z,10.98
2019-06-10T09:01:23.598Z,5.78
2019-06-10T09:03:53.690Z,7.22
2019-06-10T09:06:23.323Z,6.95
2019-06-10T09:08:54.653Z,5.90
2019-06-10T09:11:24.010Z,10.90
2019-06-10T09:13:53.460Z,6.28
2019-06-10T09:16:23.068Z,8.78
2019-06-10T09:18:55.225Z,5.53
2019-06-10T09:21:23.903Z,5.00
2019-06-10T09:23:59.656Z,5.80
2019-06-10T09:26:24.553Z,6.42
2019-06-10T09:28:56.594Z,4.97
2019-06-10T09:31:25.701Z,5.42
2019-06-10T09:33:56.982Z,6.00
2019-06-10T09:36:27.344Z,5.30
2019-06-10T09:38:56.803Z,7.75
2019-06-10T09:41:36.301Z,4.58
2019-06-10T09:43:57.630Z,7.80
2019-06-10T09:46:29.147Z,6.62
2019-06-10T09:48:59.058Z,7.17
2019-06-10T09:51:28.494Z,6.15
2019-06-10T09:54:03.159Z,6.05
2019-06-10T09:56:29.396Z,5.45
2019-06-10T09:58:58.783Z,5.70
2019-06-10T10:01:28.235Z,4.92
2019-06-10T10:04:00.271Z,3.58
2019-06-10T10:06:29.527Z,4.50
2019-06-10T10:09:00.119Z,4.97
2019-06-10T10:11:31.951Z,3.95
2019-06-10T10:14:05.241Z,4.65
2019-06-10T10:16:33.884Z,3.05
2019-06-10T10:19:05.130Z,4.15
2019-06-10T10:21:34.270Z,3.65
2019-06-10T10:24:10.559Z,3.72
2019-06-10T10:26:36.276Z,5.45
2019-06-10T10:29:05.727Z,5.03
2019-06-10T10:31:35.607Z,3.40
2019-06-10T10:34:05.027Z,6.25
2019-06-10T10:36:34.407Z,29.95
2019-06-10T10:39:06.219Z,3.70
2019-06-10T10:41:35.983Z,5.55
2019-06-10T10:44:05.769Z,5.58
2019-06-10T10:46:35.499Z,9.00
2019-06-10T10:49:04.881Z,3.95
2019-06-10T10:51:34.796Z,6.10
2019-06-10T10:54:20.993Z,6.12
2019-06-10T10:56:35.940Z,11.40
2019-06-10T10:59:05.798Z,8.90
2019-06-10T11:01:35.371Z,4.90
2019-06-10T11:04:05.604Z,6.62
2019-06-10T11:06:35.487Z,4.92
2019-06-10T11:09:08.808Z,4.42
2019-06-10T11:11:43.629Z,4.28
2019-06-10T11:14:14.006Z,6.05
2019-06-10T11:16:43.093Z,6.00
2019-06-10T11:19:13.137Z,4.03
2019-06-10T11:21:43.248Z,4.85
2019-06-10T11:24:15.809Z,4.37
2019-06-10T11:26:43.898Z,4.55
2019-06-10T11:29:13.277Z,3.75
2019-06-10T11:31:42.817Z,3.47
2019-06-10T11:34:12.826Z,3.67
2019-06-10T11:36:42.692Z,3.60
2019-06-10T11:39:13.324Z,5.25
2019-06-10T11:41:43.700Z,2.98
2019-06-10T11:44:13.247Z,3.22
2019-06-10T11:46:43.170Z,5.37
2019-06-10T11:49:12.818Z,4.17
2019-06-10T11:51:43.029Z,3.87
2019-06-10T11:54:12.985Z,7.25
2019-06-10T11:56:42.499Z,3.27
2019-06-10T11:59:13.435Z,5.92
2019-06-10T12:01:43.245Z,6.35
2019-06-10T12:04:12.993Z,4.47
2019-06-10T12:06:42.750Z,4.25
2019-06-10T12:09:13.810Z,3.87
2019-06-10T12:11:46.226Z,3.72
2019-06-10T12:14:16.715Z,4.78
2019-06-10T12:19:17.101Z,4.08
2019-06-10T12:21:46.425Z,5.33
2019-06-10T12:24:16.374Z,3.98
2019-06-10T12:26:47.480Z,4.42
2019-06-10T12:29:17.455Z,3.87
2019-06-10T12:31:47.312Z,5.90
2019-06-10T12:34:16.690Z,4.12
2019-06-10T12:36:46.503Z,3.42
2019-06-10T12:39:17.503Z,3.85
2019-06-10T12:41:46.999Z,3.60
2019-06-10T12:44:16.554Z,3.75
2019-06-10T12:46:46.271Z,4.15
2019-06-10T12:49:18.453Z,3.75
2019-06-10T12:51:46.672Z,3.58
2019-06-10T12:54:15.960Z,4.20
2019-06-10T12:56:45.434Z,5.83
2019-06-10T12:59:14.803Z,3.72
2019-06-10T13:01:45.033Z,3.55
2019-06-10T13:04:14.535Z,3.60
2019-06-10T13:06:46.934Z,5.03
2019-06-10T13:09:17.099Z,4.00
2019-06-10T13:11:46.542Z,3.90
2019-06-10T13:14:18.287Z,5.40
2019-06-10T13:16:46.991Z,5.35
2019-06-10T13:19:16.596Z,8.35
2019-06-10T13:21:46.249Z,4.42
2019-06-10T13:24:16.142Z,7.10
2019-06-10T13:26:45.598Z,4.33
2019-06-10T13:29:17.583Z,4.72
2019-06-10T13:31:46.071Z,6.62
2019-06-10T13:34:15.775Z,5.80
2019-06-10T13:36:45.495Z,4.67
2019-06-10T13:39:17.803Z,5.65
2019-06-10T13:41:49.108Z,5.12
2019-06-10T13:44:19.305Z,5.08
2019-06-10T13:46:49.618Z,6.67
2019-06-10T13:49:25.360Z,6.40
2019-06-10T13:51:53.872Z,7.37
2019-06-10T13:54:23.266Z,6.53
2019-06-10T13:56:52.823Z,7.03
2019-06-10T13:59:23.112Z,8.18
2019-06-10T14:01:53.168Z,7.42
2019-06-10T14:04:25.762Z,7.35
2019-06-10T14:06:57.234Z,5.72
2019-06-10T14:09:27.562Z,5.78
2019-06-10T14:11:57.503Z,5.20
2019-06-10T14:14:28.803Z,9.68
2019-06-10T14:17:01.275Z,10.23
2019-06-10T14:19:32.473Z,8.13
2019-06-10T14:22:04.400Z,10.53
2019-06-10T14:24:33.891Z,8.88
2019-06-10T14:27:06.711Z,7.10
2019-06-10T14:29:34.508Z,9.10
2019-06-10T14:32:05.806Z,7.50
2019-06-10T14:34:35.271Z,6.17
2019-06-10T14:37:05.803Z,7.95
2019-06-10T14:39:35.285Z,6.83
2019-06-10T14:42:06.515Z,8.53
2019-06-10T14:44:42.114Z,12.75
2019-06-10T14:47:13.971Z,13.15
2019-06-10T14:49:43.188Z,5.83
2019-06-10T14:52:15.161Z,7.03
2019-06-10T14:54:43.931Z,8.25
2019-06-10T14:57:15.097Z,11.60
2019-06-10T14:59:44.752Z,6.30
2019-06-10T15:02:15.670Z,5.47
2019-06-10T15:04:45.179Z,8.13
2019-06-10T15:07:15.541Z,6.03
2019-06-10T15:09:46.414Z,5.05
2019-06-10T15:12:17.380Z,13.20
2019-06-10T15:14:46.958Z,7.62
2019-06-10T15:17:16.826Z,6.55
2019-06-10T15:19:46.378Z,8.25
2019-06-10T15:22:17.055Z,9.40
2019-06-10T15:24:46.467Z,7.35
2019-06-10T15:27:23.334Z,6.40
2019-06-10T15:29:46.809Z,5.83
2019-06-10T15:32:27.756Z,12.63
2019-06-10T15:34:47.704Z,6.97
2019-06-10T15:37:18.903Z,5.85
2019-06-10T15:39:48.123Z,7.67
2019-06-10T15:42:17.829Z,7.92
2019-06-10T15:44:52.514Z,9.43
2019-06-10T15:47:21.131Z,11.90
2019-06-10T15:49:52.362Z,5.30
2019-06-10T15:52:24.789Z,5.97
2019-06-10T15:54:52.589Z,7.00
2019-06-10T15:57:34.852Z,5.05
2019-06-10T15:59:53.030Z,8.18
2019-06-10T16:02:25.437Z,6.10
2019-06-10T16:04:53.469Z,4.97
2019-06-10T16:07:25.499Z,6.87
2019-06-10T16:09:53.906Z,7.15
2019-06-10T16:12:26.574Z,4.70
2019-06-10T16:14:54.432Z,6.75
2019-06-10T16:17:23.940Z,7.22
2019-06-10T16:19:53.480Z,5.22
2019-06-10T16:22:24.945Z,7.00
2019-06-10T16:24:54.331Z,8.35
2019-06-10T16:27:43.219Z,7.78
2019-06-10T16:29:54.899Z,5.45
2019-06-10T16:32:26.430Z,6.72
2019-06-10T16:34:55.639Z,7.27
2019-06-10T16:37:26.724Z,6.85
2019-06-10T16:39:56.541Z,7.45
2019-06-10T16:42:27.479Z,7.20
2019-06-10T16:44:57.256Z,9.85
2019-06-10T16:47:27.295Z,7.53
2019-06-10T16:49:57.052Z,8.53
2019-06-10T16:52:27.511Z,7.35
2019-06-10T16:54:57.380Z,7.50
2019-06-10T16:57:27.764Z,6.72
2019-06-10T16:59:57.481Z,6.83
2019-06-10T17:02:27.043Z,6.50
2019-06-10T17:04:58.467Z,7.62
2019-06-10T17:07:29.085Z,8.60
2019-06-10T17:09:58.822Z,8.33
2019-06-10T17:12:28.378Z,10.65
2019-06-10T17:14:58.294Z,6.08
2019-06-10T17:17:28.670Z,7.83
2019-06-10T17:19:59.225Z,8.03
2019-06-10T17:22:30.079Z,7.03
2019-06-10T17:25:00.027Z,9.05
2019-06-10T17:27:29.745Z,6.28
2019-06-10T17:29:59.385Z,6.17
2019-06-10T17:32:30.065Z,8.45
2019-06-10T17:35:02.374Z,7.05
2019-06-10T17:37:33.668Z,8.55
2019-06-10T17:40:02.797Z,6.95
2019-06-10T17:42:38.010Z,8.80
2019-06-10T17:45:03.806Z,10.32
2019-06-10T17:47:34.662Z,8.60
2019-06-10T17:50:04.965Z,8.53
2019-06-10T17:52:38.553Z,6.17
2019-06-10T17:55:06.668Z,9.43
2019-06-10T17:57:36.316Z,7.90
2019-06-10T18:00:12.210Z,7.28
2019-06-10T18:02:39.640Z,7.33
2019-06-10T18:05:09.324Z,7.90
2019-06-10T18:07:39.295Z,10.82
2019-06-10T18:10:09.419Z,7.97
2019-06-10T18:12:39.506Z,7.12
2019-06-10T18:15:09.341Z,6.92
2019-06-10T18:17:39.164Z,7.15
2019-06-10T18:20:08.827Z,9.45
2019-06-10T18:22:38.240Z,7.30
2019-06-10T18:25:08.069Z,6.78
2019-06-10T18:27:37.858Z,5.03
2019-06-10T18:30:13.253Z,5.17
2019-06-10T18:32:39.445Z,6.08
2019-06-10T18:35:09.786Z,6.50
2019-06-10T18:37:39.527Z,5.90
2019-06-10T18:40:09.806Z,4.80
2019-06-10T18:42:39.910Z,4.92
2019-06-10T18:45:12.864Z,4.67
2019-06-10T18:47:42.284Z,5.03
2019-06-10T18:50:13.454Z,4.90
2019-06-10T18:52:43.436Z,4.60
2019-06-10T18:55:13.547Z,5.05
2019-06-10T18:57:43.129Z,5.58
2019-06-10T19:00:14.654Z,5.22
2019-06-10T19:02:44.507Z,4.90
2019-06-10T19:05:14.568Z,6.53
2019-06-10T19:07:46.803Z,5.17
2019-06-10T19:10:17.187Z,5.55
2019-06-10T19:12:46.648Z,6.45
2019-06-10T19:15:16.792Z,5.95
2019-06-10T19:17:46.431Z,11.53
2019-06-10T19:20:16.419Z,7.42
2019-06-10T19:22:45.839Z,6.50
2019-06-10T19:25:16.969Z,7.87
2019-06-10T19:27:46.885Z,5.30
2019-06-10T19:30:17.069Z,6.05
2019-06-10T19:32:48.910Z,5.03
2019-06-10T19:35:18.549Z,6.73
2019-06-10T19:37:47.999Z,6.87
2019-06-10T19:40:19.190Z,4.90
2019-06-10T19:42:48.710Z,5.45
2019-06-10T19:45:18.292Z,7.37
2019-06-10T19:47:48.070Z,5.87
2019-06-10T19:50:18.044Z,6.95
2019-06-10T19:52:48.071Z,11.05
2019-06-10T19:55:18.950Z,6.10
2019-06-10T19:57:48.491Z,5.23
2019-06-10T20:00:18.412Z,7.67
2019-06-10T20:02:48.071Z,5.80
2019-06-10T20:05:19.730Z,7.80
2019-06-10T20:07:51.214Z,7.50
2019-06-10T20:10:23.067Z,7.13
2019-06-10T20:12:53.732Z,7.22
2019-06-10T20:15:24.631Z,8.48
2019-06-10T20:17:54.173Z,8.85
2019-06-10T20:20:23.663Z,8.45
2019-06-10T20:22:56.493Z,9.33
2019-06-10T20:25:24.183Z,9.90
2019-06-10T20:27:53.751Z,7.03
2019-06-10T20:30:28.217Z,6.17
2019-06-10T20:32:56.084Z,5.87
2019-06-10T20:35:26.313Z,6.30
2019-06-10T20:37:55.705Z,7.20
2019-06-10T20:40:25.328Z,7.10
2019-06-10T20:42:54.770Z,5.33
2019-06-10T20:45:24.512Z,7.13
2019-06-10T20:47:54.033Z,8.70
2019-06-10T20:50:23.714Z,8.30
2019-06-10T20:53:11.062Z,8.13
2019-06-10T20:55:41.223Z,5.05
2019-06-10T20:58:08.606Z,5.10
2019-06-10T21:00:41.938Z,6.37
2019-06-10T21:03:11.175Z,5.53
2019-06-10T21:05:43.757Z,5.97
2019-06-10T21:08:14.111Z,5.80
2019-06-10T21:10:46.302Z,8.08
2019-06-10T21:13:16.217Z,13.37
2019-06-10T21:15:49.942Z,9.80
2019-06-10T21:18:18.350Z,6.23
2019-06-10T21:20:50.071Z,5.47
2019-06-10T21:23:22.366Z,6.33
2019-06-10T21:25:55.188Z,5.50
2019-06-10T21:28:25.223Z,8.03
2019-06-10T21:30:58.803Z,8.00
2019-06-10T21:33:27.637Z,8.27
2019-06-10T21:36:12.429Z,7.47
2019-06-10T21:38:44.336Z,7.37
2019-06-10T21:41:16.124Z,6.97
2019-06-10T21:43:50.188Z,6.13
2019-06-10T21:46:18.186Z,8.00
2019-06-10T21:48:53.239Z,9.63
2019-06-10T21:51:39.757Z,7.60
2019-06-10T21:54:12.655Z,7.10
2019-06-10T21:56:48.935Z,6.20
2019-06-10T22:05:22.408Z,6.83
2019-06-10T22:08:35.536Z,7.50
2019-06-10T22:17:03.263Z,9.10
2019-06-10T22:19:46.489Z,10.10
2019-06-10T22:22:16.944Z,11.67
2019-06-10T22:25:17.135Z,13.53
2019-06-10T22:27:52.733Z,14.03
2019-06-10T22:33:43.157Z,10.80
2019-06-10T22:36:32.560Z,14.40
2019-06-10T22:39:47.746Z,7.53
2019-06-10T22:44:42.410Z,8.50
2019-06-10T22:50:27.459Z,8.97
2019-06-10T22:53:34.251Z,10.07
2019-06-10T22:57:16.332Z,19.40
2019-06-10T22:59:53.578Z,20.93
2019-06-10T23:02:54.623Z,19.57
2019-06-10T23:05:37.243Z,20.90
2019-06-10T23:09:04.022Z,18.97
2019-06-10T23:11:23.860Z,18.90
2019-06-10T23:14:22.636Z,22.30
2019-06-10T23:17:03.027Z,23.50
2019-06-10T23:19:33.121Z,20.83
2019-06-10T23:33:22.971Z,11.37
2019-06-10T23:36:36.414Z,11.70
2019-06-10T23:39:17.988Z,10.17
2019-06-10T23:42:22.758Z,12.37
2019-06-10T23:48:48.177Z,14.43
2019-06-10T23:51:22.813Z,11.20
2019-06-10T23:54:32.296Z,10.60
2019-06-10T23:59:58.341Z,11.03
